createdAt,value
2023-01-26T00:02:28.116Z,-2.26
2023-01-26T00:04:55.747Z,-2.31
2023-01-26T00:07:23.367Z,-2.51
2023-01-26T00:09:51.085Z,-2.67
2023-01-26T00:12:18.707Z,-2.68
2023-01-26T00:14:52.784Z,-2.64
2023-01-26T00:17:26.322Z,-2.67
2023-01-26T00:19:58.608Z,-2.73
2023-01-26T00:22:27.998Z,-2.70
2023-01-26T00:24:56.422Z,-2.73
2023-01-26T00:27:26.614Z,-2.66
2023-01-26T00:29:57.379Z,-2.65
2023-01-26T00:32:27.184Z,-2.62
2023-01-26T00:34:55.059Z,-2.63
2023-01-26T00:37:22.638Z,-2.66
2023-01-26T00:39:51.679Z,-2.59
2023-01-26T00:42:20.868Z,-2.46
2023-01-26T00:44:48.629Z,-2.49
2023-01-26T00:47:16.620Z,-2.45
2023-01-26T00:49:47.182Z,-2.51
2023-01-26T00:52:15.319Z,-2.54
2023-01-26T00:54:47.676Z,-2.57
2023-01-26T00:57:15.864Z,-2.59
2023-01-26T00:59:43.658Z,-2.71
2023-01-26T01:02:11.458Z,-2.73
2023-01-26T01:04:40.928Z,-2.75
2023-01-26T01:07:08.842Z,-2.68
2023-01-26T01:09:37.011Z,-2.65
2023-01-26T01:12:05.029Z,-2.72
2023-01-26T01:14:32.889Z,-2.77
2023-01-26T01:17:00.531Z,-2.81
2023-01-26T01:19:31.331Z,-2.73
2023-01-26T01:21:59.262Z,-2.83
2023-01-26T01:24:29.600Z,-2.79
2023-01-26T01:26:57.327Z,-2.79
2023-01-26T01:29:25.104Z,-2.70
2023-01-26T01:31:52.945Z,-2.81
2023-01-26T01:34:20.712Z,-2.92
2023-01-26T01:36:50.699Z,-2.96
2023-01-26T01:39:20.842Z,-2.94
2023-01-26T01:41:48.463Z,-2.99
2023-01-26T01:44:21.505Z,-3.03
2023-01-26T01:46:54.209Z,-2.99
2023-01-26T01:49:27.376Z,-3.03
2023-01-26T01:52:06.114Z,-2.99
2023-01-26T01:54:56.977Z,-2.96
2023-01-26T01:57:29.464Z,-3.07
2023-01-26T02:00:12.468Z,-2.97
2023-01-26T02:03:06.015Z,-2.98
2023-01-26T02:05:39.329Z,-3.09
2023-01-26T02:08:10.073Z,-3.26
2023-01-26T02:10:38.233Z,-3.25
2023-01-26T02:13:09.609Z,-3.47
2023-01-26T02:15:38.418Z,-3.49
2023-01-26T02:18:06.219Z,-3.70
2023-01-26T02:20:58.555Z,-3.58
2023-01-26T02:23:55.585Z,-3.47
2023-01-26T02:26:28.484Z,-3.41
2023-01-26T02:28:56.899Z,-3.37
2023-01-26T02:31:26.974Z,-3.55
2023-01-26T02:33:56.599Z,-3.51
2023-01-26T02:36:27.569Z,-3.43
2023-01-26T02:39:25.345Z,-3.59
2023-01-26T02:42:22.265Z,-3.69
2023-01-26T02:44:50.453Z,-3.62
2023-01-26T02:47:20.260Z,-3.63
2023-01-26T02:49:50.830Z,-3.64
2023-01-26T02:52:23.502Z,-3.70
2023-01-26T02:55:19.801Z,-3.63
2023-01-26T02:57:47.740Z,-3.77
2023-01-26T03:00:18.784Z,-3.82
2023-01-26T03:02:48.296Z,-3.87
2023-01-26T03:05:15.977Z,-3.82
2023-01-26T03:07:46.556Z,-3.68
2023-01-26T03:10:16.725Z,-3.82
2023-01-26T03:12:45.682Z,-3.92
2023-01-26T03:15:33.163Z,-3.86
2023-01-26T03:18:23.705Z,-3.81
2023-01-26T03:21:09.936Z,-3.82
2023-01-26T03:23:57.560Z,-3.95
2023-01-26T03:26:45.665Z,-3.86
2023-01-26T03:29:13.859Z,-3.80
2023-01-26T03:31:43.388Z,-3.70
2023-01-26T03:34:14.071Z,-3.62
2023-01-26T03:36:45.678Z,-3.56
2023-01-26T03:39:34.393Z,-3.75
2023-01-26T03:42:21.581Z,-3.91
2023-01-26T03:45:07.797Z,-3.81
2023-01-26T03:48:09.814Z,-3.75
2023-01-26T03:50:56.021Z,-3.74
2023-01-26T03:53:43.323Z,-3.73
2023-01-26T03:56:18.395Z,-3.74
2023-01-26T03:59:08.053Z,-3.85
2023-01-26T04:02:05.472Z,-3.75
2023-01-26T04:04:52.919Z,-3.85
2023-01-26T04:07:42.993Z,-3.85
2023-01-26T04:10:11.393Z,-3.71
2023-01-26T04:12:39.189Z,-3.83
2023-01-26T04:15:33.095Z,-3.64
2023-01-26T04:18:25.880Z,-3.67
2023-01-26T04:21:13.621Z,-3.74
2023-01-26T04:23:43.621Z,-3.55
2023-01-26T04:26:11.632Z,-3.48
2023-01-26T04:28:40.137Z,-3.43
2023-01-26T04:31:08.079Z,-3.47
2023-01-26T04:33:40.470Z,-3.40
2023-01-26T04:36:10.111Z,-3.44
2023-01-26T04:38:41.623Z,-3.46
2023-01-26T04:41:09.685Z,-3.53
2023-01-26T04:43:45.535Z,-3.36
2023-01-26T04:46:14.128Z,-3.30
2023-01-26T04:48:42.511Z,-3.35
2023-01-26T04:51:13.987Z,-3.37
2023-01-26T04:53:44.875Z,-3.45
2023-01-26T04:56:22.597Z,-3.46
2023-01-26T04:58:52.800Z,-3.40
2023-01-26T05:01:21.734Z,-3.49
2023-01-26T12:04:21.994Z,1.57
2023-01-26T12:07:00.190Z,1.63
2023-01-26T12:09:47.898Z,1.56
2023-01-26T12:12:38.274Z,1.59
2023-01-26T12:15:16.008Z,1.51
2023-01-26T12:17:58.953Z,1.55
2023-01-26T12:20:45.812Z,1.47
2023-01-26T12:23:19.552Z,1.60
2023-01-26T12:25:53.104Z,1.74
2023-01-26T12:28:42.127Z,1.79
2023-01-26T12:31:12.961Z,1.81
2023-01-26T12:33:41.186Z,1.91
2023-01-26T12:36:45.702Z,1.80
2023-01-26T12:39:20.691Z,1.68
2023-01-26T12:41:59.043Z,1.55
2023-01-26T12:44:35.438Z,1.60
2023-01-26T12:47:13.797Z,1.54
2023-01-26T12:50:02.416Z,1.62
2023-01-26T12:52:43.011Z,1.74
2023-01-26T12:55:20.099Z,1.80
2023-01-26T12:58:21.416Z,1.88
2023-01-26T13:01:41.644Z,1.88
2023-01-26T13:04:15.851Z,1.91
2023-01-26T13:07:02.889Z,1.86
2023-01-26T13:09:31.015Z,1.82
2023-01-26T13:12:00.418Z,1.77
2023-01-26T13:14:37.490Z,1.79
2023-01-26T13:17:17.515Z,1.67
2023-01-26T13:19:45.149Z,1.72
2023-01-26T13:22:18.885Z,1.79
2023-01-26T13:24:49.195Z,1.81
2023-01-26T13:27:43.835Z,1.81
2023-01-26T13:30:23.561Z,1.74
2023-01-26T13:32:52.586Z,1.71
2023-01-26T13:35:25.782Z,1.70
2023-01-26T13:37:59.412Z,1.67
2023-01-26T13:40:36.498Z,1.71
2023-01-26T13:43:24.600Z,1.71
2023-01-26T13:46:17.786Z,1.77
2023-01-26T13:48:53.763Z,1.72
2023-01-26T13:51:35.948Z,1.63
2023-01-26T13:58:33.951Z,1.69
2023-01-26T14:01:07.361Z,1.70
2023-01-26T14:03:34.956Z,1.62
2023-01-26T14:06:11.584Z,1.63
2023-01-26T14:08:39.739Z,1.60
2023-01-26T14:11:21.467Z,1.56
2023-01-26T14:13:57.521Z,1.51
2023-01-26T14:16:31.467Z,1.47
2023-01-26T14:19:09.633Z,1.43
2023-01-26T14:21:52.075Z,1.40
2023-01-26T14:24:48.397Z,1.30
2023-01-26T14:27:21.750Z,1.25
2023-01-26T14:29:50.446Z,1.21
2023-01-26T14:32:18.012Z,1.17
2023-01-26T14:34:54.115Z,1.11
2023-01-26T14:37:22.994Z,1.10
2023-01-26T14:40:09.716Z,1.07
2023-01-26T14:45:33.273Z,1.16
2023-01-26T14:48:07.891Z,1.05
2023-01-26T14:50:37.729Z,1.08
2023-01-26T14:53:13.275Z,1.01
2023-01-26T14:55:44.257Z,1.00
2023-01-26T14:58:21.441Z,1.03
2023-01-26T15:00:50.285Z,1.02
2023-01-26T15:03:37.186Z,1.01
2023-01-26T15:06:17.948Z,0.99
2023-01-26T15:09:04.526Z,1.00
2023-01-26T15:11:58.851Z,0.99
2023-01-26T15:14:35.689Z,0.95
2023-01-26T15:17:04.260Z,0.85
2023-01-26T15:19:39.712Z,0.77
2023-01-26T15:22:22.184Z,0.74
2023-01-26T15:25:29.045Z,0.66
2023-01-26T15:27:59.276Z,0.60
2023-01-26T15:30:33.409Z,0.65
2023-01-26T15:33:02.483Z,0.57
2023-01-26T15:35:34.997Z,0.62
2023-01-26T15:38:11.672Z,0.64
2023-01-26T15:40:39.935Z,0.57
2023-01-26T15:43:15.147Z,0.48
2023-01-26T15:45:51.554Z,0.48
2023-01-26T15:48:19.634Z,0.44
2023-01-26T15:50:48.689Z,0.43
2023-01-26T15:53:20.142Z,0.41
2023-01-26T15:55:52.885Z,0.50
2023-01-26T15:58:20.528Z,0.49
2023-01-26T16:00:48.851Z,0.49
2023-01-26T16:03:19.241Z,0.50
2023-01-26T16:05:50.479Z,0.49
2023-01-26T16:08:18.962Z,0.48
2023-01-26T16:10:47.547Z,0.51
2023-01-26T16:13:18.155Z,0.46
2023-01-26T16:15:50.802Z,0.45
2023-01-26T16:18:18.809Z,0.41
2023-01-26T16:20:48.065Z,0.39
2023-01-26T16:23:24.809Z,0.41
2023-01-26T16:25:52.649Z,0.43
2023-01-26T16:28:20.951Z,0.43
2023-01-26T16:30:50.933Z,0.45
2023-01-26T16:33:21.620Z,0.37
2023-01-26T16:35:49.245Z,0.35
2023-01-26T16:38:17.163Z,0.35
2023-01-26T16:40:47.347Z,0.34
2023-01-26T16:43:21.447Z,0.33
2023-01-26T16:45:52.227Z,0.32
2023-01-26T16:48:20.486Z,0.28
2023-01-26T16:50:52.258Z,0.21
2023-01-26T16:53:30.586Z,0.22
2023-01-26T16:55:58.117Z,0.11
2023-01-26T16:58:30.566Z,0.18
2023-01-26T17:00:58.282Z,-0.01
2023-01-26T17:03:25.883Z,-0.12
2023-01-26T17:05:56.075Z,-0.17
2023-01-26T17:08:23.664Z,-0.21
2023-01-26T17:11:01.601Z,-0.13
2023-01-26T17:13:31.433Z,-0.09
2023-01-26T17:16:00.110Z,-0.05
2023-01-26T17:18:27.656Z,-0.05
2023-01-26T17:21:02.169Z,-0.07
2023-01-26T17:23:31.492Z,-0.08
2023-01-26T17:26:00.646Z,-0.05
2023-01-26T17:28:28.130Z,-0.07
2023-01-26T17:30:59.367Z,-0.06
2023-01-26T17:33:29.218Z,-0.05
2023-01-26T17:36:04.151Z,-0.10
2023-01-26T17:38:34.048Z,-0.11
2023-01-26T17:41:02.085Z,-0.16
2023-01-26T17:43:30.269Z,-0.09
2023-01-26T17:46:10.226Z,-0.14
2023-01-26T17:48:38.689Z,-0.16
2023-01-26T17:51:08.382Z,-0.18
2023-01-26T17:53:40.872Z,-0.19
2023-01-26T17:56:10.987Z,-0.22
2023-01-26T17:58:39.238Z,-0.21
2023-01-26T18:01:08.573Z,-0.21
2023-01-26T18:03:41.032Z,-0.31
2023-01-26T18:06:09.784Z,-0.36
2023-01-26T18:08:38.544Z,-0.43
2023-01-26T18:11:09.868Z,-0.52
2023-01-26T18:13:39.430Z,-0.55
2023-01-26T18:16:08.212Z,-0.56
2023-01-26T18:18:36.325Z,-0.51
2023-01-26T18:21:14.339Z,-0.43
2023-01-26T18:23:45.022Z,-0.44
2023-01-26T18:26:13.832Z,-0.46
2023-01-26T18:28:42.208Z,-0.50
2023-01-26T18:31:30.906Z,-0.50
2023-01-26T18:34:00.201Z,-0.58
2023-01-26T18:36:29.158Z,-0.62
2023-01-26T18:38:59.828Z,-0.58
2023-01-26T18:41:31.236Z,-0.59
2023-01-26T18:44:00.889Z,-0.64
2023-01-26T18:46:31.026Z,-0.66
2023-01-26T18:49:03.120Z,-0.67
2023-01-26T18:51:35.596Z,-0.61
2023-01-26T18:54:04.373Z,-0.58
2023-01-26T18:56:34.070Z,-0.62
2023-01-26T18:59:01.567Z,-0.68
2023-01-26T19:01:29.445Z,-0.71
2023-01-26T19:03:58.692Z,-0.71
2023-01-26T19:06:26.555Z,-0.67
2023-01-26T19:09:01.078Z,-0.73
2023-01-26T19:11:31.456Z,-0.75
2023-01-26T19:14:00.021Z,-0.84
2023-01-26T19:16:28.953Z,-0.84
2023-01-26T19:18:56.744Z,-0.87
2023-01-26T19:21:25.917Z,-0.88
2023-01-26T19:23:56.190Z,-0.81
2023-01-26T19:26:26.326Z,-0.85
2023-01-26T19:28:54.679Z,-0.92
2023-01-26T19:31:23.325Z,-0.94
2023-01-26T19:33:56.549Z,-0.95
2023-01-26T19:36:25.137Z,-1.02
2023-01-26T19:38:52.890Z,-1.02
2023-01-26T19:41:22.060Z,-1.12
2023-01-26T19:43:50.545Z,-1.02
2023-01-26T19:46:18.629Z,-1.02
2023-01-26T19:48:46.834Z,-1.09
2023-01-26T19:51:16.991Z,-1.04
2023-01-26T19:53:47.459Z,-1.05
2023-01-26T19:56:29.779Z,-1.01
2023-01-26T19:59:00.035Z,-0.98
2023-01-26T20:01:29.550Z,-1.05
2023-01-26T20:04:00.796Z,-1.04
2023-01-26T20:06:32.229Z,-1.03
2023-01-26T20:09:00.848Z,-1.02
2023-01-26T20:11:29.808Z,-0.97
2023-01-26T20:14:00.029Z,-1.02
2023-01-26T20:16:29.137Z,-1.07
2023-01-26T20:18:57.833Z,-1.18
2023-01-26T20:21:25.559Z,-1.19
2023-01-26T20:23:55.159Z,-1.17
2023-01-26T20:26:24.868Z,-1.21
2023-01-26T20:28:56.873Z,-1.19
2023-01-26T20:31:26.316Z,-1.20
2023-01-26T20:33:55.394Z,-1.21
2023-01-26T20:36:26.342Z,-1.27
2023-01-26T20:38:54.298Z,-1.30
2023-01-26T20:41:25.950Z,-1.34
2023-01-26T20:44:00.816Z,-1.28
2023-01-26T20:46:36.860Z,-1.21
2023-01-26T20:49:08.802Z,-1.37
2023-01-26T20:51:38.319Z,-1.46
2023-01-26T20:54:06.755Z,-1.52
2023-01-26T20:56:35.612Z,-1.51
2023-01-26T20:59:04.488Z,-1.57
2023-01-26T21:01:36.610Z,-1.61
2023-01-26T21:04:05.709Z,-1.52
2023-01-26T21:06:33.970Z,-1.54
2023-01-26T21:09:02.166Z,-1.52
2023-01-26T21:11:31.490Z,-1.51
2023-01-26T21:14:01.790Z,-1.53
2023-01-26T21:16:31.547Z,-1.62
2023-01-26T21:18:59.329Z,-1.69
2023-01-26T21:21:27.141Z,-1.70
2023-01-26T21:23:54.714Z,-1.63
2023-01-26T21:26:24.524Z,-1.58
2023-01-26T21:28:54.177Z,-1.64
2023-01-26T21:31:25.100Z,-1.64
2023-01-26T21:33:53.559Z,-1.77
2023-01-26T21:36:23.786Z,-1.83
2023-01-26T21:38:52.707Z,-1.82
2023-01-26T21:41:44.396Z,-1.76
2023-01-26T21:44:14.663Z,-1.88
2023-01-26T21:46:44.991Z,-1.98
2023-01-26T21:49:13.652Z,-1.99
2023-01-26T21:52:02.627Z,-2.08
2023-01-26T21:54:30.669Z,-2.03
2023-01-26T21:56:59.206Z,-2.07
2023-01-26T21:59:26.860Z,-2.03
2023-01-26T22:01:56.676Z,-1.97
2023-01-26T22:04:24.130Z,-2.02
2023-01-26T22:06:52.398Z,-2.04
2023-01-26T22:09:21.454Z,-2.09
2023-01-26T22:16:09.191Z,-2.17
2023-01-26T22:18:37.037Z,-2.25
2023-01-26T22:21:04.948Z,-2.40
2023-01-26T22:23:37.742Z,-2.49
2023-01-26T22:26:23.893Z,-2.51
2023-01-26T22:28:53.621Z,-2.53
2023-01-26T22:31:23.605Z,-2.47
2023-01-26T22:33:51.494Z,-2.56
2023-01-26T22:36:19.766Z,-2.61
2023-01-26T22:38:47.870Z,-2.71
2023-01-26T22:41:21.245Z,-2.70
2023-01-26T22:43:54.340Z,-2.79
2023-01-26T22:46:23.601Z,-2.78
2023-01-26T22:48:51.864Z,-2.80
2023-01-26T22:51:22.271Z,-2.69
2023-01-26T22:53:51.726Z,-2.76
2023-01-26T22:56:19.820Z,-2.71
2023-01-26T22:59:00.423Z,-2.83
2023-01-26T23:01:30.552Z,-2.82
2023-01-26T23:03:58.881Z,-2.83
2023-01-26T23:06:27.129Z,-2.87
2023-01-26T23:08:55.517Z,-2.96
2023-01-26T23:11:26.289Z,-3.03
2023-01-26T23:13:55.796Z,-3.00
2023-01-26T23:16:25.097Z,-3.04
2023-01-26T23:18:54.997Z,-2.99
2023-01-26T23:21:23.481Z,-3.03
2023-01-26T23:23:51.740Z,-3.11
2023-01-26T23:26:20.530Z,-3.15
2023-01-26T23:28:48.023Z,-3.06
2023-01-26T23:31:16.956Z,-3.10
2023-01-26T23:33:44.660Z,-3.20
2023-01-26T23:36:13.949Z,-3.44
2023-01-26T23:38:41.997Z,-3.53
2023-01-26T23:41:09.595Z,-3.65
2023-01-26T23:43:37.154Z,-3.71
2023-01-26T23:46:06.781Z,-3.57
2023-01-26T23:48:34.852Z,-3.73
2023-01-26T23:51:05.233Z,-3.78
2023-01-26T23:53:33.253Z,-3.88
2023-01-26T23:56:05.224Z,-3.86
2023-01-26T23:58:33.027Z,-3.80
